Time;durP1;ratioP1;P1;durP2;ratioP2;P2;SDS_P1;SDS_P2;PMS_P1;PMS_P2;Temp;Humidity;BMP_temperature;BMP_pressure;BME280_temperature;BME280_humidity;BME280_pressure;Samples;Min_cycle;Max_cycle;Signal;HPM_P1;HPM_P2
2023/12/23 00:00:31;;;;;;;0.40;0.22;;;;;;;8.83;100.00;101132.91;5099474;27;97472;-28
2023/12/23 00:02:57;;;;;;;0.63;0.30;;;;;;;8.85;100.00;101139.97;5099614;27;97272;-28
2023/12/23 00:05:22;;;;;;;1.50;0.45;;;;;;;8.85;100.00;101131.00;5099603;27;96567;-28
2023/12/23 00:07:48;;;;;;;3.60;0.50;;;;;;;8.86;100.00;101138.16;5099753;27;96749;-28
2023/12/23 00:10:13;;;;;;;0.95;0.68;;;;;;;8.87;100.00;101142.63;5099384;27;97470;-28
2023/12/23 00:12:38;;;;;;;2.45;0.70;;;;;;;8.92;100.00;101157.63;5099628;27;97960;-28
2023/12/23 00:15:04;;;;;;;0.10;0.10;;;;;;;8.91;100.00;101164.00;5099189;27;96471;-27
2023/12/23 00:17:29;;;;;;;0.63;0.20;;;;;;;8.87;100.00;101148.03;5080851;27;96981;-28
2023/12/23 00:19:56;;;;;;;6.85;0.45;;;;;;;8.92;100.00;101145.97;5098710;27;97915;-28
2023/12/23 00:22:21;;;;;;;0.20;0.20;;;;;;;8.94;100.00;101152.16;5098797;27;99417;-28
2023/12/23 00:24:46;;;;;;;3.15;1.35;;;;;;;8.91;100.00;101145.09;5099238;27;96598;-28
2023/12/23 00:27:12;;;;;;;1.95;0.32;;;;;;;8.99;100.00;101151.94;5099632;27;96750;-29
2023/12/23 00:29:37;;;;;;;1.70;0.77;;;;;;;8.97;100.00;101129.53;5098982;27;97620;-28
2023/12/23 00:32:02;;;;;;;1.40;0.45;;;;;;;8.99;100.00;101125.78;5098936;27;102016;-28
2023/12/23 00:34:28;;;;;;;3.33;0.73;;;;;;;9.04;100.00;101137.25;5080319;27;96721;-30
2023/12/23 00:36:54;;;;;;;0.85;0.30;;;;;;;9.05;100.00;101116.50;5099720;27;96794;-28
2023/12/23 00:39:19;;;;;;;4.65;0.47;;;;;;;9.07;100.00;101112.75;5098606;27;99354;-29
2023/12/23 00:41:44;;;;;;;5.90;0.65;;;;;;;9.03;100.00;101107.59;5098837;27;97752;-28
2023/12/23 00:44:10;;;;;;;0.25;0.25;;;;;;;9.08;100.00;101101.00;5098433;27;96584;-28
2023/12/23 00:46:35;;;;;;;0.20;0.15;;;;;;;9.06;100.00;101096.63;5098870;27;96847;-28
2023/12/23 00:49:00;;;;;;;0.22;0.20;;;;;;;9.14;100.00;101110.63;5098642;27;98061;-28
2023/12/23 00:51:26;;;;;;;0.98;0.20;;;;;;;9.14;100.00;101105.22;5097882;27;103742;-28
2023/12/23 00:53:51;;;;;;;0.22;0.15;;;;;;;9.15;100.00;101093.44;5099183;27;96523;-27
2023/12/23 00:56:20;;;;;;;0.68;0.32;;;;;;;9.17;100.00;101091.53;5099331;27;96744;-28
2023/12/23 00:58:46;;;;;;;0.47;0.15;;;;;;;9.14;100.00;101073.66;5079812;27;100844;-28
2023/12/23 01:01:12;;;;;;;1.65;0.30;;;;;;;9.16;100.00;101073.59;5080121;27;100682;-27
2023/12/23 01:03:37;;;;;;;3.20;0.40;;;;;;;9.21;100.00;101085.03;5079788;27;96498;-28
2023/12/23 01:06:02;;;;;;;0.95;0.47;;;;;;;9.18;100.00;101074.38;5098928;27;96837;-29
2023/12/23 01:08:28;;;;;;;0.20;0.10;;;;;;;9.17;100.00;101078.03;5098166;27;97392;-28
2023/12/23 01:10:53;;;;;;;2.13;0.50;;;;;;;9.16;100.00;101079.00;5098458;27;97836;-28
2023/12/23 01:13:19;;;;;;;0.35;0.25;;;;;;;9.15;100.00;101085.31;5098647;27;96500;-29
2023/12/23 01:15:45;;;;;;;1.48;0.50;;;;;;;9.17;100.00;101094.22;5098771;27;96880;-29
2023/12/23 01:18:10;;;;;;;3.15;0.50;;;;;;;9.12;100.00;101083.66;5098200;27;99363;-28
2023/12/23 01:20:38;;;;;;;0.15;0.10;;;;;;;9.06;100.00;101081.28;5097887;27;99544;-28
2023/12/23 01:23:04;;;;;;;2.92;0.45;;;;;;;9.10;100.00;101080.16;5080010;27;96539;-28
2023/12/23 01:25:29;;;;;;;0.63;0.30;;;;;;;9.02;100.00;101065.31;5099085;27;96875;-28
2023/12/23 01:27:55;;;;;;;1.90;0.28;;;;;;;9.02;100.00;101077.00;5097843;27;98924;-28
2023/12/23 01:30:20;;;;;;;0.30;0.20;;;;;;;8.96;100.00;101065.63;5097751;27;99466;-28
2023/12/23 01:32:45;;;;;;;0.28;0.25;;;;;;;8.97;100.00;101073.66;5098114;27;96622;-28
2023/12/23 01:35:11;;;;;;;0.80;0.20;;;;;;;9.02;100.00;101078.81;5098031;27;96835;-27
2023/12/23 01:37:37;;;;;;;0.08;0.08;;;;;;;8.96;100.00;101057.50;5097822;27;99224;-28
2023/12/23 01:40:03;;;;;;;1.63;0.35;;;;;;;8.97;100.00;101065.56;5079246;27;101372;-28
2023/12/23 01:42:29;;;;;;;4.13;0.57;;;;;;;8.93;100.00;101059.41;5098349;27;96628;-27
2023/12/23 01:44:54;;;;;;;0.45;0.25;;;;;;;8.98;100.00;101058.31;5098605;27;96793;-28
2023/12/23 01:47:19;;;;;;;1.45;0.43;;;;;;;8.99;100.00;101052.84;5097950;27;98006;-29
2023/12/23 01:49:46;;;;;;;0.32;0.13;;;;;;;8.95;100.00;101040.44;5098305;27;97776;-28
2023/12/23 01:52:12;;;;;;;0.38;0.22;;;;;;;9.02;100.00;101049.09;5078794;27;96809;-29
2023/12/23 01:54:37;;;;;;;4.68;0.47;;;;;;;9.04;100.00;101044.50;5097949;27;96832;-30
2023/12/23 01:57:02;;;;;;;0.20;0.20;;;;;;;9.01;100.00;101048.25;5097473;27;97927;-28
2023/12/23 01:59:28;;;;;;;0.57;0.45;;;;;;;9.06;100.00;101053.41;5097691;27;97632;-28
2023/12/23 02:01:54;;;;;;;1.75;0.20;;;;;;;9.07;100.00;101047.03;5098085;27;96648;-28
2023/12/23 02:04:19;;;;;;;0.28;0.10;;;;;;;9.06;100.00;101066.91;5098246;27;96785;-30
2023/12/23 02:06:44;;;;;;;0.95;0.28;;;;;;;9.06;100.00;101064.22;5097634;27;97948;-29
2023/12/23 02:09:10;;;;;;;0.10;0.10;;;;;;;9.01;100.00;101050.94;5097393;27;99449;-27
2023/12/23 02:11:57;;;;;;;0.80;0.38;;;;;;;9.01;100.00;101044.63;5079367;27;96627;-29
2023/12/23 02:14:34;;;;;;;0.45;0.25;;;;;;;8.96;100.00;101044.88;5079617;27;96771;-29
2023/12/23 02:17:00;;;;;;;0.22;0.22;;;;;;;8.97;100.00;101056.59;5081650;27;100935;-28
2023/12/23 02:19:25;;;;;;;0.10;0.10;;;;;;;8.92;100.00;101035.19;5082397;27;100838;-28
2023/12/23 02:21:50;;;;;;;0.32;0.20;;;;;;;8.97;100.00;101048.47;5100796;27;97972;-28
2023/12/23 02:24:16;;;;;;;2.35;0.45;;;;;;;8.91;100.00;101030.72;5101605;27;96871;-28
2023/12/23 02:26:48;;;;;;;3.58;0.75;;;;;;;8.99;100.00;101023.13;5100999;27;97482;-28
2023/12/23 02:29:15;;;;;;;2.03;0.82;;;;;;;8.98;100.00;101013.25;5082073;27;100819;-28
2023/12/23 02:31:41;;;;;;;1.48;0.38;;;;;;;9.03;100.00;101021.97;5082653;27;96710;-28
2023/12/23 02:34:08;;;;;;;1.20;0.22;;;;;;;9.06;100.00;101011.03;5082273;27;96856;-28
2023/12/23 02:36:33;;;;;;;1.85;0.35;;;;;;;8.99;100.00;101001.50;5082005;27;100768;-27
2023/12/23 02:38:59;;;;;;;0.13;0.10;;;;;;;9.06;100.00;100988.56;5100791;27;99137;-28
2023/12/23 02:41:24;;;;;;;1.55;0.73;;;;;;;9.09;100.00;101010.88;5082533;27;96736;-28
2023/12/23 02:43:49;;;;;;;3.05;0.57;;;;;;;9.14;100.00;101026.84;5101131;27;96803;-28
2023/12/23 02:46:15;;;;;;;3.85;0.38;;;;;;;9.16;100.00;101024.06;5100120;27;98054;-27
2023/12/23 02:48:40;;;;;;;3.17;0.52;;;;;;;9.16;100.00;101005.16;5100288;27;99124;-27
2023/12/23 02:51:05;;;;;;;1.33;0.35;;;;;;;9.19;100.00;101023.91;5100786;27;96856;-28
2023/12/23 02:53:31;;;;;;;1.13;0.40;;;;;;;9.18;100.00;101014.06;5100603;27;96881;-28
2023/12/23 02:55:56;;;;;;;0.80;0.30;;;;;;;9.20;100.00;101007.63;5100559;27;97372;-29
2023/12/23 02:58:21;;;;;;;0.90;0.38;;;;;;;9.21;100.00;100995.84;5100284;27;99097;-28
2023/12/23 03:00:47;;;;;;;0.98;0.28;;;;;;;9.21;100.00;101003.06;5100649;27;96576;-28
2023/12/23 03:03:12;;;;;;;2.28;0.55;;;;;;;9.23;100.00;101020.09;5101269;27;96822;-28
2023/12/23 03:05:37;;;;;;;0.35;0.20;;;;;;;9.24;100.00;101005.59;5100256;27;98127;-28
2023/12/23 03:08:03;;;;;;;1.88;0.20;;;;;;;9.23;100.00;101009.28;5099893;27;99291;-28
2023/12/23 03:10:28;;;;;;;1.75;0.40;;;;;;;9.23;100.00;101002.03;5100350;27;96457;-28
2023/12/23 03:12:54;;;;;;;2.63;0.80;;;;;;;9.28;100.00;100990.97;5100457;27;96950;-28
2023/12/23 03:15:19;;;;;;;3.28;0.65;;;;;;;9.24;100.00;100984.84;5100036;27;97804;-27
2023/12/23 03:17:44;;;;;;;3.50;0.55;;;;;;;9.26;100.00;100998.28;5100175;27;98312;-28
2023/12/23 03:20:10;;;;;;;0.75;0.40;;;;;;;9.29;100.00;100992.72;5100292;27;96715;-27
2023/12/23 03:22:35;;;;;;;4.25;0.60;;;;;;;9.27;100.00;100971.19;5100322;27;96812;-28
2023/12/23 03:25:01;;;;;;;2.83;0.47;;;;;;;9.22;100.00;100978.66;5100119;27;97956;-28
2023/12/23 03:27:26;;;;;;;0.40;0.20;;;;;;;9.25;100.00;101000.13;5099934;27;99167;-27
2023/12/23 03:29:52;;;;;;;1.45;0.50;;;;;;;9.29;100.00;100987.31;5100233;27;96627;-27
2023/12/23 03:32:17;;;;;;;2.85;0.35;;;;;;;9.28;100.00;100982.88;5100163;27;96872;-27
2023/12/23 03:34:43;;;;;;;1.73;0.55;;;;;;;9.26;100.00;100990.19;5099051;27;97927;-28
2023/12/23 03:37:09;;;;;;;2.95;0.60;;;;;;;9.27;100.00;100981.09;5081009;27;99188;-28
2023/12/23 03:39:34;;;;;;;0.13;0.13;;;;;;;9.28;100.00;100972.91;5100290;27;96510;-28
2023/12/23 03:42:00;;;;;;;4.88;0.40;;;;;;;9.24;100.00;100976.75;5100090;27;96921;-28
2023/12/23 03:44:25;;;;;;;2.35;0.30;;;;;;;9.25;100.00;100978.50;5099491;27;99292;-28
2023/12/23 03:46:51;;;;;;;3.35;0.40;;;;;;;9.28;100.00;100966.66;5099506;27;99309;-28
2023/12/23 03:49:17;;;;;;;1.70;0.22;;;;;;;9.28;100.00;100963.94;5100183;27;96669;-28
2023/12/23 03:51:42;;;;;;;2.40;0.32;;;;;;;9.27;100.00;100964.88;5080876;27;96865;-28
2023/12/23 03:54:07;;;;;;;0.63;0.20;;;;;;;9.29;100.00;100963.84;5099232;27;99378;-28
2023/12/23 03:56:33;;;;;;;6.20;0.60;;;;;;;9.31;100.00;100974.59;5099492;27;96640;-27
2023/12/23 03:58:58;;;;;;;0.40;0.20;;;;;;;9.27;100.00;100975.69;5080764;27;96547;-27
2023/12/23 04:01:24;;;;;;;2.28;0.57;;;;;;;9.31;100.00;100961.94;5099747;27;96877;-29
2023/12/23 04:03:50;;;;;;;0.75;0.28;;;;;;;9.32;100.00;100957.44;5080736;27;100896;-28
2023/12/23 04:06:15;;;;;;;0.63;0.20;;;;;;;9.30;100.00;100954.78;5080410;27;98925;-28
2023/12/23 04:08:41;;;;;;;2.03;0.38;;;;;;;9.29;100.00;100935.94;5099742;27;96490;-28
2023/12/23 04:11:06;;;;;;;7.00;0.55;;;;;;;9.29;100.00;100939.50;5099430;27;96854;-27
2023/12/23 04:13:31;;;;;;;0.77;0.40;;;;;;;9.24;100.00;100933.50;5098805;27;99526;-28
2023/12/23 04:15:57;;;;;;;1.98;0.28;;;;;;;9.29;100.00;100928.69;5099244;27;99289;-29
2023/12/23 04:18:22;;;;;;;4.30;0.63;;;;;;;9.27;100.00;100927.94;5099485;27;96571;-28
2023/12/23 04:20:47;;;;;;;3.03;0.50;;;;;;;9.29;100.00;100928.69;5099658;27;96821;-28
2023/12/23 04:23:13;;;;;;;2.05;0.63;;;;;;;9.28;100.00;100926.97;5098649;27;99384;-27
2023/12/23 04:25:38;;;;;;;0.63;0.10;;;;;;;9.29;100.00;100936.81;5099210;27;97268;-28
2023/12/23 04:28:04;;;;;;;0.95;0.40;;;;;;;9.29;100.00;100923.28;5099643;27;96623;-28
2023/12/23 04:30:29;;;;;;;8.13;0.43;;;;;;;9.29;100.00;100919.72;5099450;27;96820;-28
2023/12/23 04:32:54;;;;;;;2.55;0.88;;;;;;;9.31;100.00;100915.97;5098867;27;97998;-28
2023/12/23 04:35:21;;;;;;;3.05;0.63;;;;;;;9.31;100.00;100929.50;5098476;27;97219;-29
2023/12/23 04:37:46;;;;;;;3.20;0.68;;;;;;;9.29;100.00;100911.63;5098982;27;96623;-28
2023/12/23 04:40:12;;;;;;;5.82;0.22;;;;;;;9.29;100.00;100917.88;5099281;27;96497;-28
2023/12/23 04:42:37;;;;;;;0.63;0.30;;;;;;;9.29;100.00;100922.44;5098635;27;99284;-28
2023/12/23 04:45:03;;;;;;;1.08;0.63;;;;;;;9.29;100.00;100923.28;5098698;27;97593;-28
2023/12/23 04:47:28;;;;;;;9.43;0.60;;;;;;;9.32;100.00;100915.03;5079879;27;96621;-28
2023/12/23 04:49:54;;;;;;;0.75;0.35;;;;;;;9.32;100.00;100898.81;5099233;27;96829;-27
2023/12/23 04:52:20;;;;;;;0.52;0.30;;;;;;;9.27;100.00;100903.63;5079043;27;100860;-28
2023/12/23 04:54:45;;;;;;;1.98;0.50;;;;;;;9.29;100.00;100915.19;5098636;27;97772;-27
2023/12/23 04:57:10;;;;;;;6.05;0.55;;;;;;;9.33;100.00;100919.47;5080479;27;96747;-28
2023/12/23 04:59:36;;;;;;;3.70;0.28;;;;;;;9.37;100.00;100928.31;5099045;27;96774;-28
2023/12/23 05:02:03;;;;;;;1.63;0.75;;;;;;;9.36;100.00;100929.25;5098347;27;98877;-28
2023/12/23 05:04:28;;;;;;;0.65;0.43;;;;;;;9.37;100.00;100925.59;5080140;27;102133;-28
2023/12/23 05:06:54;;;;;;;0.57;0.28;;;;;;;9.36;100.00;100943.63;5098583;27;96671;-28
2023/12/23 05:09:19;;;;;;;4.25;0.35;;;;;;;9.35;100.00;100932.91;5098964;27;96802;-28
2023/12/23 05:11:44;;;;;;;0.75;0.30;;;;;;;9.34;100.00;100929.34;5098050;27;97553;-28
2023/12/23 05:14:10;;;;;;;5.80;0.50;;;;;;;9.34;100.00;100923.03;5097999;27;106001;-28
2023/12/23 05:16:35;;;;;;;1.13;0.20;;;;;;;9.38;100.00;100923.75;5098698;27;96506;-27
2023/12/23 05:19:00;;;;;;;1.75;0.60;;;;;;;9.33;100.00;100924.88;5098759;27;96786;-28
2023/12/23 05:21:26;;;;;;;4.93;1.48;;;;;;;9.33;100.00;100916.78;5098055;27;98377;-28
2023/12/23 05:23:51;;;;;;;0.88;0.25;;;;;;;9.38;100.00;100918.34;5098342;27;97971;-28
2023/12/23 05:26:19;;;;;;;1.45;0.88;;;;;;;9.38;100.00;100926.47;5098373;27;96494;-28
2023/12/23 05:28:44;;;;;;;7.90;1.40;;;;;;;9.38;100.00;100915.66;5080434;27;96790;-29
2023/12/23 05:31:10;;;;;;;0.98;0.15;;;;;;;9.37;100.00;100909.38;5098189;27;97473;-28
2023/12/23 05:33:35;;;;;;;0.57;0.20;;;;;;;9.38;100.00;100913.81;5097767;27;99390;-28
2023/12/23 05:36:00;;;;;;;6.20;0.30;;;;;;;9.40;100.00;100925.41;5097653;27;96914;-28
2023/12/23 05:38:26;;;;;;;0.10;0.10;;;;;;;9.43;100.00;100929.78;5098652;27;96782;-28
2023/12/23 05:40:51;;;;;;;2.72;0.68;;;;;;;9.39;100.00;100911.97;5098051;27;97970;-28
2023/12/23 05:43:16;;;;;;;3.45;0.50;;;;;;;9.36;100.00;100910.31;5097864;27;98879;-28
2023/12/23 05:45:42;;;;;;;5.80;0.47;;;;;;;9.41;100.00;100915.47;5098374;27;96740;-28
2023/12/23 05:48:07;;;;;;;2.25;0.65;;;;;;;9.38;100.00;100913.81;5098429;27;96903;-27
2023/12/23 05:50:32;;;;;;;0.13;0.13;;;;;;;9.41;100.00;100916.34;5097364;27;98127;-31
2023/12/23 05:52:58;;;;;;;0.35;0.13;;;;;;;9.41;100.00;100908.22;5100952;27;102576;-27
2023/12/23 05:55:23;;;;;;;0.28;0.25;;;;;;;9.43;100.00;100916.25;5101235;27;97098;-28
2023/12/23 05:57:48;;;;;;;2.00;0.52;;;;;;;9.41;100.00;100897.41;5101182;27;96821;-27
2023/12/23 06:00:14;;;;;;;1.65;0.50;;;;;;;9.44;100.00;100896.38;5100978;27;98177;-28
2023/12/23 06:02:40;;;;;;;0.47;0.28;;;;;;;9.46;100.00;100907.97;5101420;27;97771;-28
2023/12/23 06:05:05;;;;;;;1.50;0.50;;;;;;;9.48;100.00;100892.53;5101687;27;96940;-28
2023/12/23 06:07:31;;;;;;;0.35;0.20;;;;;;;9.50;100.00;100912.25;5101823;27;96823;-28
2023/12/23 06:09:56;;;;;;;5.07;0.50;;;;;;;9.49;100.00;100903.28;5101011;27;99619;-27
2023/12/23 06:12:21;;;;;;;1.80;0.55;;;;;;;9.48;100.00;100922.28;5101248;27;97418;-27
2023/12/23 06:14:47;;;;;;;0.90;0.50;;;;;;;9.45;100.00;100917.94;5101710;27;96438;-33
2023/12/23 06:17:13;;;;;;;3.42;0.52;;;;;;;9.45;100.00;100908.94;5099471;27;97095;-28
2023/12/23 06:19:38;;;;;;;4.07;1.08;;;;;;;9.50;100.00;100906.84;5098334;27;98262;-31
2023/12/23 06:22:03;;;;;;;2.15;0.50;;;;;;;9.50;100.00;100925.78;5098187;27;99132;-32
2023/12/23 06:24:29;;;;;;;0.20;0.13;;;;;;;9.49;100.00;100902.41;5098657;27;97035;-31
2023/12/23 06:26:54;;;;;;;0.30;0.25;;;;;;;9.48;100.00;100908.78;5099002;27;97026;-34
2023/12/23 06:29:19;;;;;;;6.20;0.68;;;;;;;9.48;100.00;100903.34;5098723;27;97351;-32
2023/12/23 06:31:45;;;;;;;2.35;0.55;;;;;;;9.51;100.00;100908.59;5099953;27;100301;-28
2023/12/23 06:34:10;;;;;;;0.90;0.60;;;;;;;9.45;100.00;100890.88;5100803;27;96687;-28
2023/12/23 06:36:35;;;;;;;5.88;0.82;;;;;;;9.46;100.00;100880.94;5101292;27;96796;-28
2023/12/23 06:39:01;;;;;;;9.63;0.88;;;;;;;9.49;100.00;100899.72;5100389;27;99460;-27
2023/12/23 06:41:26;;;;;;;1.30;0.52;;;;;;;9.47;100.00;100885.41;5100938;27;97780;-27
2023/12/23 06:43:51;;;;;;;0.75;0.47;;;;;;;9.51;100.00;100908.59;5100920;27;96518;-28
2023/12/23 06:46:17;;;;;;;2.75;0.63;;;;;;;9.53;100.00;100896.75;5101217;27;96783;-28
2023/12/23 06:48:42;;;;;;;0.17;0.17;;;;;;;9.53;100.00;100874.22;5099713;27;99273;-28
2023/12/23 06:51:08;;;;;;;1.25;0.40;;;;;;;9.53;100.00;100882.34;5099941;27;104007;-28
2023/12/23 06:53:33;;;;;;;2.83;0.63;;;;;;;9.52;100.00;100875.19;5100744;27;96663;-28
2023/12/23 06:55:58;;;;;;;2.25;0.20;;;;;;;9.53;100.00;100875.13;5100890;27;96775;-27
2023/12/23 06:58:27;;;;;;;1.05;0.30;;;;;;;9.55;100.00;100877.72;5100418;27;97917;-28
2023/12/23 07:00:52;;;;;;;5.03;0.50;;;;;;;9.51;100.00;100870.72;5081689;27;101077;-27
2023/12/23 07:03:17;;;;;;;1.00;0.57;;;;;;;9.51;100.00;100874.34;5100131;27;96455;-29
2023/12/23 07:05:43;;;;;;;1.35;0.60;;;;;;;9.52;100.00;100872.50;5100994;27;96810;-28
2023/12/23 07:08:08;;;;;;;0.28;0.20;;;;;;;9.54;100.00;100876.84;5100225;27;98369;-28
2023/12/23 07:10:33;;;;;;;2.00;0.50;;;;;;;9.51;100.00;100876.13;5099922;27;99139;-27
2023/12/23 07:12:58;;;;;;;3.00;0.65;;;;;;;9.53;100.00;100874.22;5099955;27;96611;-28
2023/12/23 07:15:24;;;;;;;2.40;0.73;;;;;;;9.56;100.00;100885.75;5100554;27;96807;-28
2023/12/23 07:17:49;;;;;;;5.25;0.93;;;;;;;9.59;100.00;100884.69;5100304;27;97686;-30
2023/12/23 07:20:14;;;;;;;1.48;0.45;;;;;;;9.55;100.00;100856.94;5099775;27;99104;-27
2023/12/23 07:22:40;;;;;;;0.75;0.32;;;;;;;9.61;100.00;100874.69;5100301;27;96613;-28
2023/12/23 07:25:06;;;;;;;2.95;0.40;;;;;;;9.64;100.00;100868.22;5100229;27;96829;-28
2023/12/23 07:27:31;;;;;;;0.38;0.10;;;;;;;9.62;100.00;100891.78;5099926;27;97926;-28
2023/12/23 07:29:56;;;;;;;1.90;0.70;;;;;;;9.64;100.00;100885.31;5100220;27;99425;-28
2023/12/23 07:32:22;;;;;;;1.15;0.30;;;;;;;9.71;100.00;100875.88;5100318;27;96668;-28
2023/12/23 07:34:47;;;;;;;1.58;0.43;;;;;;;9.73;100.00;100883.91;5099874;27;96953;-28
2023/12/23 07:37:12;;;;;;;1.05;0.57;;;;;;;9.67;100.00;100890.53;5099194;27;99093;-28
2023/12/23 07:39:38;;;;;;;0.60;0.30;;;;;;;9.69;100.00;100880.50;5099457;27;99496;-28
2023/12/23 07:42:03;;;;;;;1.80;0.57;;;;;;;9.68;100.00;100895.00;5100107;27;96795;-28
2023/12/23 07:44:28;;;;;;;0.63;0.43;;;;;;;9.70;100.00;100887.69;5100006;27;96843;-28
2023/12/23 07:46:54;;;;;;;3.60;0.35;;;;;;;9.75;100.00;100884.72;5099489;27;99317;-28
2023/12/23 07:49:19;;;;;;;1.33;0.68;;;;;;;9.76;100.00;100892.72;5080785;27;98824;-28
2023/12/23 07:51:45;;;;;;;1.15;0.45;;;;;;;9.74;100.00;100894.63;5099598;27;96921;-28
2023/12/23 07:54:11;;;;;;;7.75;0.95;;;;;;;9.72;100.00;100888.44;5081608;27;96782;-28
2023/12/23 07:56:36;;;;;;;2.90;0.63;;;;;;;9.75;100.00;100901.81;5099348;27;99130;-28
2023/12/23 07:59:01;;;;;;;1.05;0.68;;;;;;;9.73;100.00;100900.16;5099476;27;98304;-28
2023/12/23 08:01:27;;;;;;;1.13;0.63;;;;;;;9.75;100.00;100903.66;5099424;27;96567;-29
2023/12/23 08:03:52;;;;;;;2.15;0.60;;;;;;;9.75;100.00;100895.53;5099777;27;96724;-28
2023/12/23 08:06:18;;;;;;;10.15;0.30;;;;;;;9.79;100.00;100905.19;5099266;27;97911;-29
2023/12/23 08:08:44;;;;;;;0.47;0.30;;;;;;;9.73;100.00;100902.84;5099013;27;99176;-28
2023/12/23 08:11:10;;;;;;;6.25;0.85;;;;;;;9.79;100.00;100897.94;5081111;27;96698;-27
2023/12/23 08:13:36;;;;;;;3.58;0.77;;;;;;;9.77;100.00;100899.00;5098474;27;96818;-28
2023/12/23 08:16:02;;;;;;;0.55;0.13;;;;;;;9.74;100.00;100927.09;5098958;27;98149;-29
2023/12/23 08:18:27;;;;;;;15.90;1.02;;;;;;;9.76;100.00;100936.00;5080621;27;101162;-28
2023/12/23 08:20:53;;;;;;;1.20;0.47;;;;;;;9.80;100.00;100947.53;5099479;27;96507;-29
2023/12/23 08:23:18;;;;;;;0.90;0.35;;;;;;;9.73;100.00;100929.91;5099575;27;96833;-28
2023/12/23 08:25:44;;;;;;;1.67;0.32;;;;;;;9.69;100.00;100947.25;5098707;27;97414;-28
2023/12/23 08:28:09;;;;;;;3.67;0.60;;;;;;;9.59;100.00;100949.59;5099087;27;97923;-28
2023/12/23 08:30:34;;;;;;;1.83;0.45;;;;;;;9.57;100.00;100938.00;5099591;27;96684;-29
2023/12/23 08:33:00;;;;;;;2.78;0.52;;;;;;;9.56;100.00;100936.28;5099155;27;96786;-28
2023/12/23 08:35:25;;;;;;;1.23;0.63;;;;;;;9.54;100.00;100930.94;5098661;27;97956;-28
2023/12/23 08:37:51;;;;;;;0.95;0.45;;;;;;;9.58;100.00;100947.84;5098879;27;97784;-28
2023/12/23 08:40:17;;;;;;;4.07;1.00;;;;;;;9.59;100.00;100933.38;5098942;27;96599;-27
2023/12/23 08:42:44;;;;;;;0.30;0.20;;;;;;;9.60;100.00;100943.22;5099746;27;96846;-27
2023/12/23 08:45:09;;;;;;;4.22;0.65;;;;;;;9.62;100.00;100946.72;5079942;27;101315;-28
2023/12/23 08:47:35;;;;;;;2.85;0.75;;;;;;;9.63;100.00;100944.88;5098494;27;97470;-28
2023/12/23 08:50:00;;;;;;;1.00;0.25;;;;;;;9.65;100.00;100949.25;5098632;27;96627;-29
2023/12/23 08:52:26;;;;;;;1.55;0.30;;;;;;;9.62;100.00;100930.50;5098361;27;96869;-28
2023/12/23 08:54:51;;;;;;;1.20;0.68;;;;;;;9.65;100.00;100953.78;5098522;27;97900;-28
2023/12/23 08:57:16;;;;;;;0.63;0.30;;;;;;;9.66;100.00;100945.59;5098288;27;99360;-29
2023/12/23 08:59:42;;;;;;;2.80;0.38;;;;;;;9.69;100.00;100966.19;5098793;27;96530;-27
2023/12/23 09:02:07;;;;;;;5.93;0.45;;;;;;;9.64;100.00;100950.22;5098630;27;96815;-27
2023/12/23 09:04:33;;;;;;;2.85;0.52;;;;;;;9.60;100.00;100950.47;5098542;27;99514;-28
2023/12/23 09:06:59;;;;;;;5.45;0.88;;;;;;;9.69;100.00;100977.88;5098563;27;99595;-28
2023/12/23 09:09:24;;;;;;;0.65;0.30;;;;;;;9.69;100.00;100950.81;5098798;27;96623;-30
2023/12/23 09:11:50;;;;;;;1.80;0.40;;;;;;;9.70;100.00;100959.81;5099022;27;96777;-28
2023/12/23 09:14:15;;;;;;;2.00;0.70;;;;;;;9.76;100.00;100967.59;5097452;27;99277;-28
2023/12/23 09:16:41;;;;;;;3.83;0.40;;;;;;;9.74;100.00;100977.63;5079224;27;100986;-28
2023/12/23 09:19:06;;;;;;;1.33;0.63;;;;;;;9.72;100.00;100966.00;5099215;27;96475;-29
2023/12/23 09:21:32;;;;;;;1.88;0.20;;;;;;;9.73;100.00;100971.34;5098666;27;96854;-29
2023/12/23 09:23:57;;;;;;;0.50;0.30;;;;;;;9.72;100.00;100972.28;5098395;27;98134;-28
2023/12/23 09:26:24;;;;;;;0.57;0.30;;;;;;;9.77;100.00;100977.44;5101399;27;99066;-28
2023/12/23 09:28:52;;;;;;;0.63;0.40;;;;;;;9.80;100.00;100985.41;5080890;27;96610;-28
2023/12/23 09:31:18;;;;;;;1.02;0.63;;;;;;;9.79;100.00;100968.28;5081273;27;96913;-28
2023/12/23 09:33:43;;;;;;;0.65;0.05;;;;;;;9.82;100.00;100979.88;5099430;27;97400;-27
2023/12/23 09:36:08;;;;;;;4.28;0.68;;;;;;;9.81;100.00;100961.94;5098549;27;99296;-28
2023/12/23 09:38:34;;;;;;;8.65;0.25;;;;;;;9.81;100.00;100978.16;5098966;27;96496;-27
2023/12/23 09:40:59;;;;;;;2.53;0.43;;;;;;;9.84;100.00;100968.00;5099522;27;96876;-28
2023/12/23 09:43:25;;;;;;;0.30;0.15;;;;;;;9.88;100.00;100975.00;5098810;27;99233;-28
2023/12/23 09:45:52;;;;;;;1.40;0.70;;;;;;;9.93;100.00;100972.91;5099111;27;104726;-28
2023/12/23 09:48:18;;;;;;;0.32;0.22;;;;;;;9.93;100.00;100969.34;5099193;27;96540;-27
2023/12/23 09:50:44;;;;;;;3.40;0.75;;;;;;;9.87;100.00;100985.94;5080331;27;96837;-27
2023/12/23 09:53:12;;;;;;;1.45;0.63;;;;;;;9.93;100.00;100996.41;5098274;27;99273;-28
2023/12/23 09:55:39;;;;;;;0.90;0.43;;;;;;;9.96;100.00;100988.09;5080393;27;101186;-28
2023/12/23 09:58:04;;;;;;;1.55;0.40;;;;;;;9.93;100.00;100999.97;5080502;27;96719;-28
2023/12/23 10:00:30;;;;;;;0.85;0.25;;;;;;;9.91;100.00;100987.50;5098877;27;96735;-29
2023/12/23 10:02:55;;;;;;;1.65;0.43;;;;;;;9.97;100.00;100992.56;5098407;27;96741;-28
2023/12/23 10:05:20;;;;;;;1.38;0.45;;;;;;;9.95;100.00;100999.91;5098500;27;99261;-28
2023/12/23 10:07:46;;;;;;;5.25;0.55;;;;;;;9.97;100.00;100990.72;5098858;27;96624;-28
2023/12/23 10:10:12;;;;;;;2.65;0.35;;;;;;;10.03;100.00;100984.09;5099102;27;96842;-28
2023/12/23 10:12:37;;;;;;;3.45;0.88;;;;;;;10.09;100.00;100996.41;5098455;27;99512;-28
2023/12/23 10:15:03;;;;;;;1.77;0.65;;;;;;;10.11;100.00;100998.06;5098087;27;99153;-29
2023/12/23 10:17:32;;;;;;;6.80;0.57;;;;;;;10.17;99.83;100995.00;5080259;27;96593;-30
2023/12/23 10:19:58;;;;;;;1.70;0.55;;;;;;;10.21;100.00;100983.03;5080527;27;96880;-28
2023/12/23 10:22:26;;;;;;;0.30;0.22;;;;;;;10.21;99.43;100985.75;5098928;27;97238;-29
2023/12/23 10:24:51;;;;;;;1.45;0.35;;;;;;;10.26;99.84;100992.72;5079620;27;100856;-29
2023/12/23 10:27:17;;;;;;;1.98;0.80;;;;;;;10.24;99.34;100991.94;5098006;27;96693;-28
2023/12/23 10:29:47;;;;;;;0.28;0.28;;;;;;;10.26;99.24;100996.31;5062814;27;96755;-27
2023/12/23 10:32:18;;;;;;;1.48;0.38;;;;;;;10.29;99.39;100998.00;5079610;27;101397;-28
2023/12/23 10:34:44;;;;;;;0.37;0.20;;;;;;;10.36;99.49;101007.50;5098209;27;97317;-28
2023/12/23 10:37:11;;;;;;;0.20;0.20;;;;;;;10.39;99.26;101004.59;5062006;27;96502;-29
2023/12/23 10:39:45;;;;;;;3.47;0.40;;;;;;;10.38;98.79;100986.63;5079948;27;96871;-28
2023/12/23 10:42:19;;;;;;;2.25;0.50;;;;;;;10.51;98.98;100997.59;5079055;27;101456;-28
2023/12/23 10:44:46;;;;;;;0.40;0.20;;;;;;;10.48;98.35;101004.06;5079866;27;100646;-27
2023/12/23 10:47:13;;;;;;;0.32;0.22;;;;;;;10.51;98.39;101001.22;5079797;27;96663;-28
2023/12/23 10:49:40;;;;;;;1.25;0.50;;;;;;;10.49;97.45;100980.59;5079621;27;96779;-29
2023/12/23 10:52:07;;;;;;;4.97;0.95;;;;;;;10.57;97.97;100981.88;5078155;27;101009;-28
2023/12/23 10:54:35;;;;;;;7.28;0.68;;;;;;;10.58;97.41;100991.75;5079068;27;100964;-28
2023/12/23 10:57:01;;;;;;;0.03;0.00;;;;;;;10.56;96.92;100981.97;5079615;27;96597;-28
2023/12/23 10:59:27;;;;;;;0.70;0.32;;;;;;;10.58;96.35;101005.28;5079439;27;96855;-27
2023/12/23 11:01:55;;;;;;;0.40;0.15;;;;;;;10.60;97.02;100987.09;5097693;27;99309;-28
2023/12/23 11:04:22;;;;;;;2.97;0.55;;;;;;;10.66;96.64;100982.31;5079057;27;100774;-27
2023/12/23 11:06:52;;;;;;;0.52;0.35;;;;;;;10.66;95.73;100985.00;5079405;27;96618;-28
2023/12/23 11:09:19;;;;;;;1.65;0.55;;;;;;;10.69;96.44;100988.38;5079565;27;96901;-29
2023/12/23 11:11:45;;;;;;;0.60;0.20;;;;;;;10.71;96.17;101000.00;5097637;27;97944;-28
2023/12/23 11:14:11;;;;;;;0.30;0.10;;;;;;;10.76;96.33;101002.44;5078621;27;100885;-27
2023/12/23 11:16:40;;;;;;;1.00;0.32;;;;;;;10.78;96.01;101014.06;5096058;27;96762;-28